createdAt,value
2018-07-20T00:00:09.206Z,4.45
2018-07-20T00:03:33.652Z,4.40
2018-07-20T00:06:58.077Z,4.67
2018-07-20T00:10:22.554Z,3.95
2018-07-20T00:13:47.012Z,4.58
2018-07-20T00:17:11.458Z,4.40
2018-07-20T00:20:35.894Z,5.10
2018-07-20T00:24:00.388Z,4.92
2018-07-20T00:27:25.004Z,5.42
2018-07-20T00:30:49.483Z,4.95
2018-07-20T00:34:13.951Z,5.62
2018-07-20T00:37:38.387Z,5.42
2018-07-20T00:41:02.813Z,5.20
2018-07-20T00:44:27.312Z,5.90
2018-07-20T00:47:51.705Z,5.97
2018-07-20T00:51:16.162Z,6.20
2018-07-20T00:54:40.314Z,5.53
2018-07-20T00:58:04.763Z,5.90
2018-07-20T01:01:29.187Z,5.78
2018-07-20T01:04:53.638Z,6.40
2018-07-20T01:08:18.089Z,6.03
2018-07-20T01:11:42.507Z,5.30
2018-07-20T01:15:06.985Z,6.47
2018-07-20T01:18:31.421Z,6.42
2018-07-20T01:21:55.846Z,6.45
2018-07-20T01:25:20.302Z,6.67
2018-07-20T01:28:44.751Z,6.72
2018-07-20T01:32:10.241Z,6.87
2018-07-20T01:35:34.657Z,6.33
2018-07-20T01:38:59.071Z,7.20
2018-07-20T01:42:23.534Z,6.50
2018-07-20T01:45:48.004Z,7.78
2018-07-20T01:49:12.460Z,7.70
2018-07-20T01:52:36.967Z,6.65
2018-07-20T01:56:01.425Z,6.78
2018-07-20T01:59:25.897Z,7.28
2018-07-20T02:02:50.327Z,7.92
2018-07-20T02:06:14.753Z,7.40
2018-07-20T02:09:39.171Z,6.45
2018-07-20T02:13:03.676Z,7.85
2018-07-20T02:16:28.120Z,7.50
2018-07-20T02:19:52.560Z,6.75
2018-07-20T02:23:17.022Z,7.37
2018-07-20T02:26:41.429Z,8.10
2018-07-20T02:30:06.158Z,8.45
2018-07-20T02:33:30.619Z,7.35
2018-07-20T02:36:55.026Z,8.18
2018-07-20T02:40:19.519Z,7.55
2018-07-20T02:43:43.947Z,8.13
2018-07-20T02:47:08.402Z,7.75
2018-07-20T02:50:32.892Z,8.78
2018-07-20T02:53:57.348Z,8.58
2018-07-20T02:57:21.785Z,8.40
2018-07-20T03:00:46.238Z,9.68
2018-07-20T03:04:10.671Z,8.93
2018-07-20T03:07:35.128Z,8.98
2018-07-20T03:10:59.538Z,8.03
2018-07-20T03:14:24.002Z,9.05
2018-07-20T03:17:48.465Z,9.30
2018-07-20T03:21:12.867Z,9.33
2018-07-20T03:24:37.283Z,8.98
2018-07-20T03:28:01.786Z,8.60
2018-07-20T03:31:26.204Z,8.90
2018-07-20T03:34:50.668Z,9.23
2018-07-20T03:38:15.150Z,9.40
2018-07-20T03:41:39.918Z,9.05
2018-07-20T03:45:04.805Z,8.98
2018-07-20T03:48:29.272Z,8.87
2018-07-20T03:51:53.834Z,8.78
2018-07-20T03:55:18.283Z,9.80
2018-07-20T03:58:42.776Z,9.67
2018-07-20T04:02:07.266Z,10.17
2018-07-20T04:05:31.702Z,9.38
2018-07-20T04:08:56.134Z,9.80
2018-07-20T04:12:20.605Z,9.13
2018-07-20T04:15:45.066Z,9.73
2018-07-20T04:19:09.549Z,9.58
2018-07-20T04:22:33.967Z,8.43
2018-07-20T04:25:58.428Z,10.32
2018-07-20T04:29:22.965Z,9.68
2018-07-20T04:32:47.394Z,10.43
2018-07-20T04:36:11.833Z,10.48
2018-07-20T04:39:36.292Z,10.70
2018-07-20T04:43:00.742Z,9.93
2018-07-20T04:46:25.171Z,10.82
2018-07-20T04:49:49.603Z,10.63
2018-07-20T04:53:14.045Z,11.35
2018-07-20T04:56:38.478Z,11.25
2018-07-20T05:00:02.994Z,11.65
2018-07-20T05:03:27.437Z,11.20
2018-07-20T05:06:51.860Z,11.50
2018-07-20T05:10:16.345Z,11.20
2018-07-20T05:13:40.810Z,12.07
2018-07-20T05:17:05.245Z,10.55
2018-07-20T05:20:29.716Z,11.70
2018-07-20T05:23:54.163Z,12.82
2018-07-20T05:27:18.567Z,12.73
2018-07-20T05:30:43.015Z,12.60
2018-07-20T05:34:07.473Z,12.95
2018-07-20T05:37:31.941Z,15.20
2018-07-20T05:40:56.411Z,14.25
2018-07-20T05:44:21.418Z,15.53
2018-07-20T05:47:45.891Z,14.95
2018-07-20T05:51:10.437Z,14.78
2018-07-20T05:54:34.868Z,13.93
2018-07-20T05:57:59.347Z,15.30
2018-07-20T06:01:23.800Z,14.23
2018-07-20T06:04:48.235Z,14.20
2018-07-20T06:08:12.697Z,13.13
2018-07-20T06:11:37.202Z,17.35
2018-07-20T06:15:01.660Z,14.30
2018-07-20T06:18:32.721Z,15.30
2018-07-20T06:21:57.209Z,15.72
2018-07-20T06:25:21.713Z,14.05
2018-07-20T06:28:46.182Z,14.05
2018-07-20T06:32:10.656Z,14.07
2018-07-20T06:35:35.169Z,16.12
2018-07-20T06:38:59.687Z,15.15
2018-07-20T06:42:24.249Z,17.90
2018-07-20T06:45:48.779Z,14.20
2018-07-20T06:49:13.210Z,15.35
2018-07-20T06:52:37.696Z,17.23
2018-07-20T06:56:02.179Z,14.45
2018-07-20T06:59:26.663Z,18.37
2018-07-20T07:02:51.155Z,15.03
2018-07-20T07:06:15.655Z,16.60
2018-07-20T07:09:40.131Z,15.53
2018-07-20T07:13:04.640Z,15.95
2018-07-20T07:16:29.092Z,17.07
2018-07-20T07:19:53.613Z,16.45
2018-07-20T07:23:18.200Z,17.55
2018-07-20T07:26:42.637Z,17.15
2018-07-20T07:30:07.090Z,16.52
2018-07-20T07:33:31.597Z,18.42
2018-07-20T07:36:56.035Z,16.00
2018-07-20T07:40:20.623Z,17.30
2018-07-20T07:43:45.110Z,16.42
2018-07-20T07:47:09.836Z,17.87
2018-07-20T07:50:34.355Z,16.10
2018-07-20T07:53:58.828Z,19.07
2018-07-20T07:57:23.276Z,17.32
2018-07-20T08:00:47.747Z,15.18
2018-07-20T08:04:12.157Z,18.48
2018-07-20T08:07:36.599Z,16.05
2018-07-20T08:11:01.060Z,18.30
2018-07-20T08:14:25.483Z,17.27
2018-07-20T08:17:49.946Z,16.75
2018-07-20T08:21:14.464Z,13.45
2018-07-20T08:24:38.936Z,15.58
2018-07-20T08:28:03.413Z,17.48
2018-07-20T08:31:27.859Z,16.17
2018-07-20T08:34:52.328Z,17.17
2018-07-20T08:38:16.737Z,15.70
2018-07-20T08:41:41.168Z,16.48
2018-07-20T08:45:05.722Z,16.97
2018-07-20T08:48:30.166Z,15.60
2018-07-20T08:51:54.632Z,14.20
2018-07-20T08:55:19.087Z,12.55
2018-07-20T08:58:43.490Z,14.35
2018-07-20T09:02:08.079Z,10.82
2018-07-20T09:05:32.522Z,10.38
2018-07-20T09:08:56.986Z,11.90
2018-07-20T09:12:21.476Z,9.60
2018-07-20T09:15:45.900Z,9.78
2018-07-20T09:19:10.368Z,10.18
2018-07-20T09:22:34.792Z,10.15
2018-07-20T09:25:59.241Z,10.25
2018-07-20T09:29:23.658Z,10.48
2018-07-20T09:32:48.105Z,10.38
2018-07-20T09:36:12.520Z,11.12
2018-07-20T09:39:36.937Z,8.83
2018-07-20T09:43:01.437Z,9.88
2018-07-20T09:46:25.605Z,9.90
2018-07-20T09:49:50.071Z,11.18
2018-07-20T09:53:14.519Z,10.35
2018-07-20T09:56:38.936Z,9.50
2018-07-20T10:00:03.460Z,10.40
2018-07-20T10:03:27.980Z,10.25
2018-07-20T10:06:52.449Z,6.67
2018-07-20T10:10:16.879Z,9.50
2018-07-20T10:13:41.307Z,6.87
2018-07-20T10:17:05.959Z,10.70
2018-07-20T10:20:30.451Z,9.58
2018-07-20T10:23:54.921Z,8.45
2018-07-20T10:27:21.224Z,9.95
2018-07-20T10:30:45.680Z,8.08
2018-07-20T10:34:10.111Z,8.38
2018-07-20T10:37:34.551Z,9.85
2018-07-20T10:40:59.025Z,9.10
2018-07-20T10:44:23.474Z,8.60
2018-07-20T10:47:47.887Z,8.08
2018-07-20T10:51:12.339Z,8.95
2018-07-20T10:54:36.799Z,8.40
2018-07-20T10:58:01.240Z,7.72
2018-07-20T11:01:25.810Z,8.58
2018-07-20T11:04:50.219Z,7.22
2018-07-20T11:08:14.671Z,8.10
2018-07-20T11:11:39.180Z,6.60
2018-07-20T11:15:03.763Z,8.23
2018-07-20T11:18:28.199Z,7.47
2018-07-20T11:21:52.670Z,6.40
2018-07-20T11:25:17.246Z,8.03
2018-07-20T11:28:41.679Z,7.45
2018-07-20T11:32:06.154Z,9.33
2018-07-20T11:35:30.625Z,6.95
2018-07-20T11:38:55.034Z,6.80
2018-07-20T11:42:19.480Z,6.83
2018-07-20T11:45:43.929Z,7.65
2018-07-20T11:49:08.390Z,7.25
2018-07-20T11:52:32.840Z,6.30
2018-07-20T11:55:57.329Z,6.80
2018-07-20T11:59:21.827Z,8.13
2018-07-20T12:02:46.230Z,7.45
2018-07-20T12:06:10.686Z,7.40
2018-07-20T12:09:35.108Z,7.45
2018-07-20T12:12:59.529Z,7.90
2018-07-20T12:16:24.083Z,6.70
2018-07-20T12:19:49.515Z,7.22
2018-07-20T12:23:13.938Z,7.78
2018-07-20T12:26:38.371Z,7.47
2018-07-20T12:30:02.788Z,7.87
2018-07-20T12:33:27.239Z,7.35
2018-07-20T12:36:51.678Z,6.65
2018-07-20T12:40:16.158Z,7.00
2018-07-20T12:43:40.637Z,7.15
2018-07-20T12:47:05.143Z,7.30
2018-07-20T12:50:29.615Z,5.83
2018-07-20T12:53:54.059Z,5.20
2018-07-20T12:57:18.541Z,6.00
2018-07-20T13:00:42.997Z,6.05
2018-07-20T13:04:07.486Z,6.05
2018-07-20T13:07:31.912Z,8.00
2018-07-20T13:10:56.352Z,6.12
2018-07-20T13:14:20.815Z,7.08
2018-07-20T13:17:53.067Z,7.05
2018-07-20T13:21:17.542Z,5.78
2018-07-20T13:24:41.988Z,6.80
2018-07-20T13:28:06.515Z,6.33
2018-07-20T13:31:30.964Z,5.75
2018-07-20T13:34:55.437Z,5.92
2018-07-20T13:38:19.882Z,5.97
2018-07-20T13:41:44.343Z,5.78
2018-07-20T13:45:09.063Z,4.87
2018-07-20T13:48:33.484Z,5.33
2018-07-20T13:51:57.951Z,5.60
2018-07-20T13:55:22.444Z,6.25
2018-07-20T13:58:46.870Z,6.70
2018-07-20T14:02:11.561Z,6.42
2018-07-20T14:05:36.027Z,5.58
2018-07-20T14:09:00.496Z,6.53
2018-07-20T14:12:24.995Z,6.30
2018-07-20T14:15:49.437Z,5.85
2018-07-20T14:19:13.861Z,6.30
2018-07-20T14:22:38.456Z,6.25
2018-07-20T14:26:02.876Z,5.60
2018-07-20T14:29:27.024Z,5.22
2018-07-20T14:32:51.494Z,5.15
2018-07-20T14:36:15.950Z,6.50
2018-07-20T14:39:40.412Z,5.42
2018-07-20T14:43:04.979Z,5.58
2018-07-20T14:46:29.510Z,6.00
2018-07-20T14:49:53.937Z,5.95
2018-07-20T14:53:18.803Z,6.35
2018-07-20T14:56:43.278Z,6.03
2018-07-20T15:00:07.814Z,5.37
2018-07-20T15:03:32.287Z,6.25
2018-07-20T15:06:56.815Z,5.45
2018-07-20T15:10:21.280Z,5.75
2018-07-20T15:13:45.777Z,5.97
2018-07-20T15:17:10.314Z,6.97
2018-07-20T15:20:34.751Z,5.80
2018-07-20T15:23:59.243Z,6.28
2018-07-20T15:27:23.717Z,6.87
2018-07-20T15:30:51.138Z,6.45
2018-07-20T15:34:15.521Z,6.25
2018-07-20T15:37:39.937Z,7.22
2018-07-20T15:41:04.419Z,7.20
2018-07-20T15:44:28.876Z,7.62
2018-07-20T15:47:53.349Z,6.92
2018-07-20T15:51:17.777Z,6.72
2018-07-20T15:54:42.193Z,7.03
2018-07-20T15:58:06.636Z,6.85
2018-07-20T16:01:31.127Z,6.35
2018-07-20T16:04:55.768Z,6.67
2018-07-20T16:08:20.276Z,7.28
2018-07-20T16:11:44.756Z,7.87
2018-07-20T16:15:09.238Z,7.05
2018-07-20T16:18:33.684Z,7.72
2018-07-20T16:21:58.154Z,7.95
2018-07-20T16:25:22.684Z,7.12
2018-07-20T16:28:47.193Z,8.50
2018-07-20T16:32:11.672Z,9.33
2018-07-20T16:35:36.164Z,8.10
2018-07-20T16:39:00.669Z,7.50
2018-07-20T16:42:25.162Z,7.00
2018-07-20T16:45:49.613Z,7.78
2018-07-20T16:49:14.080Z,6.75
2018-07-20T16:52:38.535Z,7.10
2018-07-20T16:56:03.011Z,7.45
2018-07-20T16:59:27.404Z,6.50
2018-07-20T17:02:51.845Z,7.28
2018-07-20T17:06:16.258Z,7.92
2018-07-20T17:09:40.690Z,8.53
2018-07-20T17:13:05.174Z,6.58
2018-07-20T17:16:32.440Z,7.28
2018-07-20T17:19:56.860Z,7.17
2018-07-20T17:23:21.293Z,7.83
2018-07-20T17:26:45.728Z,7.45
2018-07-20T17:30:10.196Z,8.45
2018-07-20T17:33:34.667Z,6.70
2018-07-20T17:36:59.141Z,6.72
2018-07-20T17:40:23.647Z,6.42
2018-07-20T17:43:48.090Z,8.13
2018-07-20T17:47:12.925Z,8.43
2018-07-20T17:50:37.440Z,7.40
2018-07-20T17:54:01.882Z,6.80
2018-07-20T17:57:26.355Z,6.60
2018-07-20T18:00:50.779Z,6.72
2018-07-20T18:04:15.209Z,6.70
2018-07-20T18:07:39.672Z,6.95
2018-07-20T18:11:04.133Z,6.35
2018-07-20T18:14:28.583Z,6.83
2018-07-20T18:17:53.053Z,5.80
2018-07-20T18:21:17.495Z,5.58
2018-07-20T18:24:41.975Z,5.83
2018-07-20T18:28:06.406Z,5.90
2018-07-20T18:31:30.903Z,5.45
2018-07-20T18:34:55.376Z,5.92
2018-07-20T18:38:19.798Z,6.25
2018-07-20T18:41:44.210Z,6.42
2018-07-20T18:45:09.542Z,6.20
2018-07-20T18:48:33.979Z,5.83
2018-07-20T18:51:58.458Z,5.97
2018-07-20T18:55:22.913Z,5.53
2018-07-20T18:58:47.322Z,4.75
2018-07-20T19:02:12.234Z,4.90
2018-07-20T19:05:36.766Z,5.05
2018-07-20T19:09:01.212Z,5.67
2018-07-20T19:12:25.694Z,5.15
2018-07-20T19:15:50.114Z,4.90
2018-07-20T19:19:14.591Z,5.28
2018-07-20T19:22:39.044Z,4.30
2018-07-20T19:26:03.496Z,5.47
2018-07-20T19:29:27.966Z,5.05
2018-07-20T19:32:52.501Z,5.55
2018-07-20T19:36:16.963Z,5.53
2018-07-20T19:39:41.408Z,5.00
2018-07-20T19:43:05.880Z,4.67
2018-07-20T19:46:30.341Z,5.00
2018-07-20T19:49:54.745Z,4.70
2018-07-20T19:53:19.207Z,5.08
2018-07-20T19:56:43.651Z,4.72
2018-07-20T20:00:10.667Z,4.87
2018-07-20T20:03:35.173Z,4.67
2018-07-20T20:06:59.586Z,4.85
2018-07-20T20:10:24.126Z,4.90
2018-07-20T20:13:48.603Z,4.30
2018-07-20T20:17:13.111Z,4.30
2018-07-20T20:20:37.559Z,4.25
2018-07-20T20:24:02.021Z,4.10
2018-07-20T20:27:26.466Z,4.28
2018-07-20T20:30:50.933Z,4.70
2018-07-20T20:34:15.391Z,5.28
2018-07-20T20:37:39.859Z,4.58
2018-07-20T20:41:04.322Z,4.17
2018-07-20T20:44:28.768Z,4.50
2018-07-20T20:47:53.206Z,4.12
2018-07-20T20:51:17.655Z,4.95
2018-07-20T20:54:42.093Z,4.10
2018-07-20T20:58:06.571Z,4.65
2018-07-20T21:01:31.017Z,4.83
2018-07-20T21:04:55.543Z,4.30
2018-07-20T21:08:19.982Z,4.58
2018-07-20T21:11:44.165Z,4.60
2018-07-20T21:15:08.604Z,4.03
2018-07-20T21:18:33.008Z,4.97
2018-07-20T21:21:57.475Z,4.03
2018-07-20T21:25:21.922Z,4.15
2018-07-20T21:28:46.327Z,4.90
2018-07-20T21:32:10.760Z,4.90
2018-07-20T21:35:35.304Z,4.92
2018-07-20T21:38:59.742Z,5.17
2018-07-20T21:42:24.202Z,4.42
2018-07-20T21:45:48.673Z,5.17
2018-07-20T21:49:13.120Z,4.28
2018-07-20T21:52:37.568Z,4.40
2018-07-20T21:56:02.002Z,4.20
2018-07-20T21:59:26.416Z,4.50
2018-07-20T22:02:50.885Z,5.00
2018-07-20T22:06:15.335Z,5.05
2018-07-20T22:09:39.764Z,4.40
2018-07-20T22:13:04.233Z,4.80
2018-07-20T22:16:28.688Z,4.72
2018-07-20T22:19:53.110Z,4.28
2018-07-20T22:23:17.621Z,4.20
2018-07-20T22:26:41.989Z,5.00
2018-07-20T22:30:08.877Z,5.35
2018-07-20T22:33:33.312Z,4.75
2018-07-20T22:36:57.785Z,4.53
2018-07-20T22:40:22.212Z,3.70
2018-07-20T22:43:46.658Z,5.45
2018-07-20T22:47:11.288Z,4.87
2018-07-20T22:50:35.731Z,5.20
2018-07-20T22:54:00.163Z,5.08
2018-07-20T22:57:24.649Z,5.15
2018-07-20T23:00:49.083Z,5.37
2018-07-20T23:04:13.523Z,6.47
2018-07-20T23:07:37.979Z,5.95
2018-07-20T23:11:02.409Z,5.75
2018-07-20T23:14:26.830Z,5.17
2018-07-20T23:17:51.322Z,5.05
2018-07-20T23:21:15.827Z,4.60
2018-07-20T23:24:40.267Z,5.97
2018-07-20T23:28:04.728Z,5.37
2018-07-20T23:31:29.259Z,4.92
2018-07-20T23:34:53.686Z,5.40
2018-07-20T23:38:18.107Z,5.35
2018-07-20T23:41:42.537Z,5.83
2018-07-20T23:45:07.039Z,6.05
2018-07-20T23:48:31.513Z,4.97
2018-07-20T23:51:55.966Z,5.55
2018-07-20T23:55:20.447Z,5.87
2018-07-20T23:58:44.932Z,6.40
